Sisters, Oregon
Current Conditions -  °F | °C
As of 3:10 PM on Saturday 25 Oct 2014 (Local Time) from KRDM Reporting Station
Scattered Clouds Scattered Clouds  
Wind Chill: 62°   Ceiling: Unl
Heat Index: 62°   Visibility: 10mi
Dew Point: 38°   Wind: 18mph
Humidity: 41%   Direction: 210°SSW
Pressure: 29.53"   Gusts: 44mph
Location:  44.29°N, 121.55°W
Report Text: KRDM 252210Z 21016G38KT 10SM SCT021 17/03 A2953 RMK AO2 PK WND 22038/2206 T01670033
Loading
Personal Weather Stations






























Interactive Weather Map
Tropical Storm Tracking
New forecast layout! Learn more

10-Day Weather Forecast

Advertisements
Track Severe Weather on mobile